• Join FlightAware (Why Join?)
  • Login
  • US Flag 
05:19PM EDT


 

Airport Tracker/Info


-or-


 

Live Flight TrackerFlight Track Log ✈ N876MA ✈ 30-Jun-2014 ✈ KMTN - KPWA

Flight Track Log - Related Links

Times and Time Zones

All times are in EDT time to prevent confusion due to time zone crossing. See the N876MA flight status page for this flight to view local times or setup timezone preferences in your user account.

Time Position Orientation Groundspeed Altitude Reporting Facility
EDT Latitude Longitude Course Direction KTS MPH feet Rate Location/Type
10:19AM 39.2667 -76.4000 252° West 208 239 2,300  Level Potomac TRACON
10:20AM 39.2667 -76.4833 270° West 238 274 3,700 1,860 Climbing Potomac TRACON
10:21AM 39.2667 -76.5833 270° West 258 297 6,100 2,040 Climbing Potomac TRACON
10:22AM 39.2667 -76.6667 270° West 277 319 7,900 900 Climbing Potomac TRACON
10:24AM 39.2564 -76.8339 266° West 287 330 8,600 1,020 Climbing Washington Center
10:25AM 39.1078 -77.2190 252° West  Level FlightAware Approximate
10:25AM 39.2258 -76.9347 249° West 296 341 10,600  Level Washington Center
10:26AM 39.1933 -77.0425 249° West 310 357 12,500 1,800 Climbing Washington Center
10:27AM 39.1611 -77.1536 250° West 325 374 14,400 1,980 Climbing Washington Center
10:28AM 39.1292 -77.2656 250° West 332 382 16,600 1,920 Climbing Washington Center
10:29AM 39.0894 -77.4022 250° West 339 390 18,400 1,500 Climbing Washington Center
10:30AM 39.0553 -77.5194 249° West 348 400 19,800 1,200 Climbing Washington Center
10:31AM 39.0219 -77.6381 250° West 366 421 21,000 1,260 Climbing Washington Center
10:32AM 38.9847 -77.7614 249° West 369 425 22,500 960 Climbing Washington Center
10:33AM 38.9403 -77.9117 249° West 374 430 23,000 240 Climbing Washington Center
10:34AM 38.8992 -78.0503 249° West 407 468 23,000 540 Level Washington Center
10:35AM 38.8575 -78.1917 249° West 421 484 24,200 1,380 Climbing Washington Center
10:36AM 38.8356 -78.3311 259° West 403 464 25,900 1,380 Climbing Washington Center
10:37AM 38.8156 -78.4656 259° West 389 448 27,100 720 Climbing Washington Center
10:39AM 38.7711 -78.7767 260° West 407 468 28,300 540 Climbing Washington Center
10:40AM 38.7506 -78.9231 260° West 414 476 28,800 420 Climbing Washington Center
10:42AM 38.7294 -79.0733 260° West 424 488 29,200 420 Climbing Washington Center
10:43AM 38.7089 -79.2275 260° West 427 491 29,700 480 Climbing Washington Center
10:44AM 38.6894 -79.3789 261° West 431 496 30,200 480 Climbing Washington Center
10:45AM 38.6642 -79.5600 260° West 431 496 30,800 480 Climbing Washington Center
10:46AM 38.6444 -79.7131 261° West 435 501 31,300 480 Climbing Washington Center
10:47AM 38.6231 -79.8642 260° West 436 502 31,800 420 Climbing Washington Center
10:48AM 38.6042 -80.0125 261° West 432 497 32,200 360 Climbing Washington Center
10:49AM 38.5844 -80.1556 260° West 421 484 32,600 420 Climbing Washington Center
10:50AM 38.5642 -80.2975 260° West 412 474 33,100 480 Climbing Washington Center
10:51AM 38.5497 -80.4669 264° West 403 464 33,700 420 Climbing Washington Center
10:52AM 38.5403 -80.6047 265° West 397 457 34,000 120 Climbing Washington Center
10:53AM 38.5306 -80.7453 265° West 396 456 34,000  Level Washington Center
10:54AM 38.5219 -80.8878 266° West 404 465 34,000  Level Washington Center
10:55AM 38.5117 -81.0311 265° West 406 467 34,000  Level Washington Center
10:56AM 38.4992 -81.2042 265° West 409 471 34,000  Level Washington Center
10:57AM 38.4886 -81.3486 265° West 409 471 34,000  Level Washington Center
10:58AM 38.4781 -81.4939 265° West 410 472 34,000  Level Washington Center
10:59AM 38.4672 -81.6400 265° West 412 474 34,000  Level Washington Center
11:00AM 38.4564 -81.7853 265° West 413 475 34,000  Level Washington Center
11:01AM 38.4044 -81.9856 252° West 420 483 34,000  Level Indianapolis Center
11:02AM 38.3578 -82.1217 246° West 420 483 34,000  Level Indianapolis Center
11:03AM 38.3128 -82.2603 248° West 420 483 34,000  Level Indianapolis Center
11:04AM 38.2681 -82.3992 248° West 420 483 34,000  Level Indianapolis Center
11:06AM 38.2186 -82.5508 248° West 420 483 34,000  Level Indianapolis Center
11:07AM 38.1772 -82.6889 249° West 420 483 34,000  Level Indianapolis Center
11:08AM 38.1350 -82.8286 249° West 420 483 34,000  Level Indianapolis Center
11:09AM 38.0978 -82.9686 251° West 420 483 34,000  Level Indianapolis Center
11:10AM 38.0669 -83.1122 255° West 420 483 34,000  Level Indianapolis Center
11:11AM 38.0422 -83.2586 258° West 421 484 34,000  Level Indianapolis Center
11:12AM 38.0150 -83.4297 259° West 422 486 34,000  Level Indianapolis Center
11:13AM 37.9903 -83.5747 258° West 422 486 34,000  Level Indianapolis Center
11:14AM 37.9678 -83.7214 259° West 422 486 34,000  Level Indianapolis Center
11:15AM 37.9478 -83.8692 260° West 423 487 34,000  Level Indianapolis Center
11:16AM 37.9289 -84.0167 261° West 423 487 34,000  Level Indianapolis Center
11:17AM 37.9039 -84.1881 260° West 424 488 34,000  Level Indianapolis Center
11:18AM 37.8872 -84.3364 262° West 424 488 34,000  Level Indianapolis Center
11:19AM 37.8786 -84.4856 266° West 425 489 34,000  Level Indianapolis Center
11:20AM 37.8919 -84.6361 276° West 432 497 34,000  Level Indianapolis Center
11:21AM 37.9261 -84.7817 287° West 432 497 34,000  Level Indianapolis Center
11:22AM 37.9611 -84.9250 287° West 431 496 34,000  Level Indianapolis Center
11:23AM 38.0000 -85.0961 286° West 431 496 34,000  Level Indianapolis Center
11:24AM 38.0275 -85.2306 285° West 432 497 34,000  Level Indianapolis Center
11:25AM 38.0592 -85.3778 285° West 432 497 34,000  Level Indianapolis Center
11:26AM 38.0914 -85.5267 285° West 433 498 34,000  Level Indianapolis Center
11:27AM 38.0944 -85.7078 271° West 437 503 34,000  Level Indianapolis Center
11:28AM 38.0847 -85.8589 265° West 429 494 34,000  Level Indianapolis Center
11:29AM 38.0728 -86.0117 264° West 433 498 34,000  Level Indianapolis Center
11:30AM 38.0614 -86.1647 265° West 433 498 34,000  Level Indianapolis Center
11:31AM 38.0500 -86.3161 265° West 433 498 34,000  Level Indianapolis Center
11:32AM 38.0378 -86.4708 264° West 433 498 34,000  Level Indianapolis Center
11:33AM 38.0253 -86.6250 264° West 434 499 34,000  Level Indianapolis Center
11:34AM 38.0125 -86.7797 264° West 434 499 34,000  Level Indianapolis Center
11:35AM 38.0000 -86.9361 264° West 436 502 34,000  Level Indianapolis Center
11:36AM 37.9833 -87.1228 264° West 436 502 34,000  Level Indianapolis Center
11:37AM 37.9708 -87.2781 264° West 436 502 34,000  Level Indianapolis Center
11:39AM 37.9572 -87.4331 264° West 436 502 34,000  Level Indianapolis Center
11:40AM 37.9450 -87.5867 264° West 436 502 34,100  Climbing Indianapolis Center
11:41AM 37.9300 -87.7408 263° West 436 502 34,000 -60 Descending Indianapolis Center
11:42AM 37.9169 -87.8928 264° West 436 502 34,000  Level Indianapolis Center
11:43AM 37.9028 -88.0464 263° West 436 502 34,000  Level Indianapolis Center
11:44AM 37.8869 -88.1986 263° West 435 501 34,000  Level Indianapolis Center
11:45AM 37.8725 -88.3519 263° West 435 501 34,000  Level Indianapolis Center
11:46AM 37.8578 -88.5053 263° West 437 503 34,000  Level Kansas City Center
11:47AM 37.8439 -88.6594 264° West 437 503 34,000  Level Kansas City Center
11:48AM 37.8272 -88.8286 263° West 438 504 34,000  Level Kansas City Center
11:49AM 37.8128 -88.9814 263° West 438 504 34,000  Level Kansas City Center
11:50AM 37.7931 -89.1481 262° West 442 509 34,000  Level Kansas City Center
11:51AM 37.7769 -89.3003 262° West 442 509 34,000  Level Kansas City Center
11:52AM 37.7617 -89.4417 262° West 441 507 34,000  Level Kansas City Center
11:53AM 37.7450 -89.5950 262° West 441 507 34,000  Level Kansas City Center
11:54AM 37.7289 -89.7481 262° West 441 507 34,000  Level Kansas City Center
11:55AM 37.7081 -89.9317 262° West 441 507 34,000  Level Kansas City Center
11:56AM 37.6908 -90.0833 262° West 440 506 34,000  Level Kansas City Center
11:57AM 37.6733 -90.2369 262° West 440 506 34,000  Level Kansas City Center
11:58AM 37.6372 -90.3847 253° West 445 512 34,000  Level Kansas City Center
11:59AM 37.6025 -90.5353 254° West 445 512 34,000  Level Kansas City Center
12:00PM 37.5669 -90.6817 253° West 443 510 34,000  Level Kansas City Center
12:01PM 37.5225 -90.8594 253° West 443 510 34,000  Level Kansas City Center
12:02PM 37.4858 -91.0058 253° West 443 510 34,000  Level Kansas City Center
12:03PM 37.4517 -91.1531 254° West 443 510 34,000  Level Kansas City Center
12:04PM 37.4147 -91.3025 253° West 442 509 34,000  Level Kansas City Center
12:05PM 37.3778 -91.4503 253° West 442 509 34,000  Level Kansas City Center
12:06PM 37.3397 -91.5989 252° West 442 509 34,000  Level Kansas City Center
12:07PM 37.3025 -91.7486 253° West 443 510 34,000  Level Kansas City Center
12:08PM 37.2572 -91.9275 252° West 443 510 34,000  Level Kansas City Center
12:09PM 37.2267 -92.0781 256° West 444 511 34,000  Level Kansas City Center
12:10PM 37.1939 -92.2294 255° West 444 511 34,000  Level Kansas City Center
12:11PM 37.1614 -92.3794 255° West 444 511 34,000  Level Kansas City Center
12:13PM 37.1303 -92.5272 255° West 441 507 34,000  Level Kansas City Center
12:14PM 37.0969 -92.6764 254° West 441 507 34,000  Level Kansas City Center
12:15PM 37.0639 -92.8258 255° West 441 507 34,000  Level Kansas City Center
12:16PM 37.0239 -93.0061 255° West 442 509 34,000  Level Kansas City Center
12:17PM 36.9872 -93.1519 253° West 442 509 34,000  Level Kansas City Center
12:18PM 36.9533 -93.3022 254° West 443 510 34,000  Level Kansas City Center
12:19PM 36.9217 -93.4558 256° West 449 517 34,000  Level Kansas City Center
12:20PM 36.8892 -93.6086 255° West 453 521 34,000  Level Kansas City Center
12:21PM 36.8467 -93.7697 252° West 453 521 34,000  Level Kansas City Center
12:22PM 36.8133 -93.9203 255° West 452 520 34,000  Level Kansas City Center
12:23PM 36.7781 -94.0700 254° West 452 520 34,000  Level Kansas City Center
12:24PM 36.7439 -94.2200 254° West 452 520 34,000  Level Kansas City Center
12:25PM 36.7083 -94.3697 254° West 452 520 34,000  Level Kansas City Center
12:26PM 36.6658 -94.5500 254° West 452 520 34,000  Level Kansas City Center
12:27PM 36.6292 -94.6997 253° West 452 520 34,000  Level Kansas City Center
12:28PM 36.5944 -94.8492 254° West 452 520 34,000  Level Kansas City Center
12:29PM 36.5581 -94.9981 253° West 452 520 34,000  Level Kansas City Center
12:30PM 36.5181 -95.1619 253° West 451 519 34,000  Level Kansas City Center
12:31PM 36.4814 -95.3097 253° West 451 519 34,000  Level Kansas City Center
12:32PM 36.4444 -95.4575 253° West 451 519 34,000  Level Kansas City Center
12:33PM 36.4075 -95.6047 253° West 451 519 34,000 -540 Level Kansas City Center
12:34PM 36.3694 -95.7594 253° West 451 519 33,000 -960 Descending Kansas City Center
12:35PM 36.3247 -95.9392 253° West 452 520 32,000 -960 Descending Kansas City Center
12:36PM 36.2858 -96.0883 252° West 452 520 31,000 -1,800 Descending Kansas City Center
12:37PM 36.2481 -96.2386 253° West 453 521 28,400 -2,280 Descending Kansas City Center
12:38PM 36.2089 -96.3914 252° West 461 531 26,300 -2,040 Descending Kansas City Center
12:39PM 36.1706 -96.5397 252° West 458 527 24,200 -2,160 Descending Kansas City Center
12:40PM 36.1333 -96.6811 252° West 438 504 21,800 -2,460 Descending Kansas City Center
12:41PM 36.0939 -96.8342 252° West 416 479 19,300 -2,340 Descending Kansas City Center
12:42PM 36.0600 -96.9625 252° West 402 463 17,100 -2,040 Descending Kansas City Center
12:44PM 36.0272 -97.0850 252° West 385 443 15,100 -1,860 Descending Kansas City Center
12:44PM 35.9850 -97.1656 237° Southwest 351 404 13,600 -2,280 Descending Fort Worth Center
12:45PM 35.9342 -97.2533 234° Southwest 321 369 11,500 -2,460 Descending Fort Worth Center
12:45PM 35.9247 -97.2756 242° Southwest 327 376 11,100 -1,680 Descending Fort Worth Center
12:46PM 35.8872 -97.3394 234° Southwest 302 348 9,800 -1,800 Descending Fort Worth Center
12:46PM 35.8761 -97.3578 233° Southwest 305 351 9,300 -2,100 Descending Fort Worth Center
12:47PM 35.8419 -97.4197 236° Southwest 279 321 7,700 -2,160 Descending Fort Worth Center
12:47PM 35.8292 -97.4422 235° Southwest 281 323 7,100 -2,880 Descending Fort Worth Center
12:48PM 35.8033 -97.4886 236° Southwest 233 268 4,800 -2,820 Descending Fort Worth Center
12:49PM 35.7919 -97.5075 233° Southwest 232 267 4,200 -840 Descending Fort Worth Center
12:49PM 35.7703 -97.5486 237° Southwest 194 223 4,000 -240 Descending Fort Worth Center
12:50PM 35.7589 -97.5694 236° Southwest 205 236 4,000 -600 Level Fort Worth Center
12:50PM 35.7408 -97.6028 236° Southwest 191 220 3,400 -900 Descending Fort Worth Center
12:51PM 35.7286 -97.6217 231° Southwest 194 223 3,100 -300 Descending Fort Worth Center
12:51PM 35.7053 -97.6425 216° Southwest 158 182 3,100 -120 Level Fort Worth Center
12:52PM 35.6897 -97.6447 187° South 154 177 3,000  Descending Fort Worth Center
12:52PM 35.6614 -97.6450 180° South 152 175 3,100 60 Climbing Fort Worth Center
12:53PM 35.6456 -97.6447 179° South 158 182 3,100 -300 Level Fort Worth Center
12:53PM 35.6153 -97.6478 185° South 156 180 2,800 -720 Descending Fort Worth Center
12:54PM 35.6006 -97.6453 172° South 153 176 2,400 -900 Descending Fort Worth Center
12:54PM 35.5792 -97.6461 182° South 141 162 2,000 -720 Descending Fort Worth Center
12:55PM 35.5644 -97.6447 176° South 133 153 1,700 -660 Descending Fort Worth Center